ADDS METAR Data INFO
IDs: Format: Raw Decoded Include TAF

Data at: 0213 UTC 17 Aug 2018

PAMM 170156Z AUTO 23008KT 10SM CLR 15/11 A3016 RMK AO2 SLP205 T01500106
PAMM 170056Z AUTO 22009KT 10SM CLR 16/08 A3016 RMK AO2 SLP205 T01560083
PAMM 162356Z AUTO 23009KT 10SM CLR 16/09 A3016 RMK AO2 SLP205 T01560094 10156 20133 51005
PAMM 162256Z AUTO 23005KT 10SM CLR 16/09 A3016 RMK AO2 SLP203 T01560094
PAMM 162156Z AUTO 24005KT 10SM CLR 14/11 A3016 RMK AO2 SLP203 T01440106
PAMM 162056Z AUTO 24005KT 10SM CLR 14/11 A3015 RMK AO2 SLP200 T01390106 51010
PAMM 161856Z AUTO 31005KT 10SM CLR 14/10 A3013 RMK AO2 SLP195 T01390100
PAMM 161756Z AUTO 31003KT 10SM CLR 13/10 A3012 RMK AO2 SLP190 T01330100 10139 20106 51008
PAMM 161656Z AUTO 00000KT 10SM CLR 13/10 A3011 RMK AO2 SLP188 T01330100
PAMM 161556Z AUTO 00000KT 10SM CLR 13/10 A3011 RMK AO2 SLP186 T01280100
PAMM 161456Z AUTO 00000KT 10SM CLR 12/10 A3009 RMK AO2 SLP182 T01220100 52008
PAMM 161256Z AUTO 02004KT 10SM CLR 12/09 A3008 RMK AO2 SLP177 T01220094
PAMM 161156Z AUTO 00000KT 10SM CLR 11/09 A3007 RMK AO2 SLP173 6//// 7//// T01110094 10150 20111 53002
PAMM 161056Z AUTO VRB05KT 10SM CLR 13/10 A3007 RMK AO2 SLP173 T01280100
PAMM 160956Z AUTO 02005KT 10SM CLR 13/09 A3006 RMK AO2 SLP171 T01330094
PAMM 160856Z AUTO 34009KT 10SM CLR 14/09 A3006 RMK AO2 SLP172 T01390094 52004
PAMM 160756Z AUTO 32006KT 10SM CLR 14/09 A3006 RMK AO2 SLP170 T01390094 401780106
PAMM 160656Z AUTO 33010KT 10SM CLR 14/09 A3005 RMK AO2 SLP168 T01440094
PAMM 160556Z AUTO 00000KT 10SM CLR 14/09 A3005 RMK AO2 SLP167 T01440094 10178 20144 53005
PAMM 160356Z AUTO 36009KT 10SM CLR 16/10 A3004 RMK AO2 SLP164 T01560100
PAMM 160256Z AUTO 33010KT 10SM CLR 16/10 A3004 RMK AO2 SLP162 T01610100 58008
PAMM 160156Z AUTO 34005KT 10SM CLR 17/09 A3005 RMK AO2 SLP165 T01670094
PAMM 160056Z AUTO 33006KT 10SM CLR 17/09 A3005 RMK AO2 SLP168 T01670094
PAMM 152356Z AUTO 34004KT 10SM CLR 17/10 A3006 RMK AO2 SLP171 T01670100 10178 20139 58011
PAMM 152256Z AUTO 35007KT 10SM CLR 17/09 A3007 RMK AO2 SLP175 T01720089
PAMM 152156Z AUTO 34009KT 10SM CLR 16/10 A3009 RMK AO2 SLP180 T01610100
PAMM 151956Z AUTO 33009KT 10SM CLR 16/09 A3010 RMK AO2 SLP183 T01560094
PAMM 151856Z AUTO 30009KT 10SM CLR 14/10 A3010 RMK AO2 SLP183 T01440100
PAMM 151756Z AUTO 32009KT 10SM CLR 14/09 A3009 RMK AO2 SLP182 T01390094 10139 20106 58001